createdAt,value
2018-03-28T00:00:59.158Z,8.71
2018-03-28T00:03:29.129Z,8.82
2018-03-28T00:05:59.672Z,8.81
2018-03-28T00:08:30.667Z,8.84
2018-03-28T00:11:01.641Z,8.81
2018-03-28T00:13:32.221Z,8.68
2018-03-28T00:16:03.041Z,8.58
2018-03-28T00:18:33.614Z,8.54
2018-03-28T00:21:04.764Z,8.49
2018-03-28T00:23:35.006Z,8.35
2018-03-28T00:26:05.344Z,8.39
2018-03-28T00:28:36.070Z,8.42
2018-03-28T00:31:06.480Z,8.36
2018-03-28T00:33:36.828Z,8.39
2018-03-28T00:36:07.453Z,8.44
2018-03-28T00:38:38.170Z,8.37
2018-03-28T00:41:08.819Z,8.35
2018-03-28T00:43:39.620Z,8.37
2018-03-28T00:46:10.701Z,8.36
2018-03-28T00:48:41.630Z,8.39
2018-03-28T00:51:23.750Z,8.49
2018-03-28T00:53:54.323Z,8.47
2018-03-28T00:56:24.697Z,8.43
2018-03-28T00:58:55.415Z,8.53
2018-03-28T01:01:26.635Z,8.58
2018-03-28T01:03:57.069Z,8.51
2018-03-28T01:06:27.422Z,8.39
2018-03-28T01:08:58.335Z,8.38
2018-03-28T01:11:28.912Z,8.32
2018-03-28T01:14:00.127Z,8.34
2018-03-28T01:16:30.868Z,8.36
2018-03-28T01:19:00.892Z,8.54
2018-03-28T01:21:31.406Z,8.53
2018-03-28T01:24:02.044Z,8.47
2018-03-28T01:26:32.171Z,8.59
2018-03-28T01:29:03.031Z,8.58
2018-03-28T01:31:33.842Z,8.58
2018-03-28T01:34:04.268Z,8.61
2018-03-28T01:36:34.975Z,8.59
2018-03-28T01:39:06.134Z,8.52
2018-03-28T01:41:36.583Z,8.53
2018-03-28T01:44:07.213Z,8.51
2018-03-28T01:46:37.013Z,8.56
2018-03-28T01:49:07.643Z,8.52
2018-03-28T01:51:38.252Z,8.43
2018-03-28T01:54:08.877Z,8.55
2018-03-28T01:56:39.442Z,8.62
2018-03-28T01:59:10.350Z,8.84
2018-03-28T02:01:40.903Z,8.86
2018-03-28T02:04:11.717Z,8.85
2018-03-28T02:06:42.682Z,8.82
2018-03-28T02:09:13.515Z,8.78
2018-03-28T02:11:44.211Z,8.84
2018-03-28T02:14:14.983Z,8.77
2018-03-28T02:16:45.763Z,8.77
2018-03-28T02:19:17.085Z,8.79
2018-03-28T02:21:48.005Z,8.71
2018-03-28T02:24:18.594Z,8.82
2018-03-28T02:26:49.366Z,8.89
2018-03-28T02:29:19.845Z,8.95
2018-03-28T02:31:50.687Z,8.96
2018-03-28T02:34:21.888Z,8.93
2018-03-28T02:36:52.727Z,8.84
2018-03-28T02:39:23.156Z,8.79
2018-03-28T02:41:53.684Z,8.72
2018-03-28T02:44:24.449Z,8.56
2018-03-28T02:46:55.057Z,8.55
2018-03-28T02:49:25.628Z,8.59
2018-03-28T02:51:56.232Z,8.58
2018-03-28T02:54:26.792Z,8.55
2018-03-28T02:56:57.900Z,8.54
2018-03-28T02:59:28.730Z,8.66
2018-03-28T03:01:59.217Z,8.81
2018-03-28T03:04:29.502Z,8.74
2018-03-28T03:07:00.451Z,8.65
2018-03-28T03:09:30.932Z,8.67
2018-03-28T03:12:01.393Z,8.70
2018-03-28T03:14:32.258Z,8.67
2018-03-28T03:17:03.016Z,8.71
2018-03-28T03:19:33.718Z,8.83
2018-03-28T03:22:04.301Z,8.93
2018-03-28T03:24:35.144Z,8.94
2018-03-28T03:27:05.960Z,8.89
2018-03-28T03:29:36.499Z,8.87
2018-03-28T03:32:07.003Z,8.75
2018-03-28T03:34:37.646Z,8.71
2018-03-28T03:37:08.829Z,8.69
2018-03-28T03:39:39.038Z,8.72
2018-03-28T03:42:09.864Z,8.45
2018-03-28T03:44:40.294Z,8.46
2018-03-28T03:47:10.475Z,8.43
2018-03-28T03:49:40.904Z,8.48
2018-03-28T03:52:11.664Z,8.51
2018-03-28T03:54:42.401Z,8.47
2018-03-28T03:57:13.386Z,8.50
2018-03-28T03:59:43.734Z,8.51
2018-03-28T04:02:14.280Z,8.48
2018-03-28T04:04:44.422Z,8.46
2018-03-28T04:07:15.780Z,8.55
2018-03-28T04:09:46.364Z,8.56
2018-03-28T04:12:16.332Z,8.49
2018-03-28T04:14:46.863Z,8.48
2018-03-28T04:17:17.441Z,8.44
2018-03-28T04:19:48.614Z,8.44
2018-03-28T04:22:19.290Z,8.49
2018-03-28T04:24:49.672Z,8.44
2018-03-28T04:27:20.406Z,8.50
2018-03-28T04:29:51.539Z,8.52
2018-03-28T04:32:22.069Z,8.61
2018-03-28T04:34:53.369Z,8.55
2018-03-28T04:37:23.248Z,8.51
2018-03-28T04:39:53.770Z,8.53
2018-03-28T04:42:24.201Z,8.54
2018-03-28T04:44:55.149Z,8.45
2018-03-28T04:47:25.050Z,8.37
2018-03-28T04:49:56.006Z,8.46
2018-03-28T04:52:26.678Z,8.53
2018-03-28T04:54:57.366Z,8.56
2018-03-28T04:57:28.097Z,8.66
2018-03-28T04:59:58.722Z,8.66
2018-03-28T05:02:28.840Z,8.64
2018-03-28T05:04:59.518Z,8.66
2018-03-28T05:07:30.455Z,8.62
2018-03-28T05:10:01.830Z,8.69
2018-03-28T05:12:32.960Z,8.70
2018-03-28T05:15:04.050Z,8.75
2018-03-28T05:17:35.338Z,8.77
2018-03-28T05:20:05.796Z,8.81
2018-03-28T05:22:36.629Z,8.83
2018-03-28T05:25:07.044Z,8.85
2018-03-28T05:27:38.133Z,8.93
2018-03-28T05:30:08.936Z,8.86
2018-03-28T05:32:40.147Z,8.72
2018-03-28T05:35:11.156Z,8.68
2018-03-28T05:37:41.684Z,8.65
2018-03-28T05:40:12.318Z,8.59
2018-03-28T05:42:42.851Z,8.48
2018-03-28T05:45:12.653Z,8.45
2018-03-28T05:47:42.964Z,8.43
2018-03-28T05:50:13.189Z,8.46
2018-03-28T05:52:43.527Z,8.48
2018-03-28T05:55:13.636Z,8.48
2018-03-28T05:57:44.337Z,8.44
2018-03-28T06:00:15.239Z,8.54
2018-03-28T06:02:45.130Z,8.53
2018-03-28T06:05:16.271Z,8.45
2018-03-28T06:07:46.307Z,8.38
2018-03-28T06:10:16.412Z,8.53
2018-03-28T06:12:46.446Z,8.32
2018-03-28T06:15:16.326Z,8.25
2018-03-28T06:17:46.590Z,8.32
2018-03-28T06:20:16.584Z,8.19
2018-03-28T06:22:46.501Z,8.34
2018-03-28T06:25:16.331Z,8.40
2018-03-28T06:27:46.596Z,8.32
2018-03-28T06:30:16.547Z,8.29
2018-03-28T06:32:46.671Z,8.36
2018-03-28T06:35:16.589Z,8.32
2018-03-28T06:37:46.917Z,8.24
2018-03-28T06:40:16.724Z,8.28
2018-03-28T06:42:46.897Z,8.23
2018-03-28T06:45:16.760Z,8.21
2018-03-28T06:47:47.046Z,8.27
2018-03-28T06:50:16.897Z,8.21
2018-03-28T06:52:47.082Z,8.34
2018-03-28T06:55:18.243Z,8.33
2018-03-28T06:57:48.230Z,8.32
2018-03-28T07:00:18.305Z,8.37
2018-03-28T07:02:48.789Z,8.12
2018-03-28T07:05:18.845Z,8.19
2018-03-28T07:07:49.167Z,8.17
2018-03-28T07:10:20.000Z,8.17
2018-03-28T07:12:50.126Z,8.26
2018-03-28T07:15:19.933Z,8.29
2018-03-28T07:17:50.062Z,8.23
2018-03-28T07:20:20.642Z,8.40
2018-03-28T07:22:50.495Z,8.40
2018-03-28T07:25:20.514Z,8.45
2018-03-28T07:27:50.754Z,8.62
2018-03-28T07:30:21.165Z,8.63
2018-03-28T07:32:51.191Z,8.77
2018-03-28T07:35:21.097Z,8.61
2018-03-28T07:37:51.341Z,8.62
2018-03-28T07:40:21.332Z,8.58
2018-03-28T07:42:51.530Z,8.49
2018-03-28T07:45:21.367Z,8.47
2018-03-28T07:47:51.347Z,8.53
2018-03-28T07:50:21.816Z,8.54
2018-03-28T07:52:52.143Z,8.72
2018-03-28T07:55:21.975Z,8.72
2018-03-28T07:57:52.174Z,8.73
2018-03-28T08:00:22.200Z,8.81
2018-03-28T08:02:52.195Z,8.80
2018-03-28T08:05:22.544Z,8.83
2018-03-28T08:07:52.654Z,8.88
2018-03-28T08:10:22.843Z,9.04
2018-03-28T08:12:53.091Z,9.15
2018-03-28T08:15:22.908Z,9.17
2018-03-28T08:17:53.533Z,9.16
2018-03-28T08:20:23.465Z,9.23
2018-03-28T08:22:53.844Z,9.25
2018-03-28T08:25:23.879Z,9.28
2018-03-28T08:27:54.178Z,9.44
2018-03-28T08:30:24.052Z,9.34
2018-03-28T08:32:54.245Z,9.42
2018-03-28T08:35:24.167Z,9.62
2018-03-28T08:37:54.389Z,9.55
2018-03-28T08:40:24.124Z,9.59
2018-03-28T08:42:53.987Z,9.73
2018-03-28T08:45:23.833Z,9.67
2018-03-28T08:47:54.059Z,9.79
2018-03-28T08:50:24.009Z,10.16
2018-03-28T08:52:54.299Z,10.11
2018-03-28T08:55:24.215Z,10.00
2018-03-28T08:57:55.583Z,9.94
2018-03-28T09:00:26.087Z,9.97
2018-03-28T09:02:56.221Z,10.10
2018-03-28T09:05:27.025Z,10.01
2018-03-28T09:07:56.958Z,10.11
2018-03-28T09:10:26.883Z,10.11
2018-03-28T09:12:56.758Z,10.16
2018-03-28T09:15:26.606Z,10.27
2018-03-28T09:17:56.541Z,10.46
2018-03-28T09:20:26.861Z,10.66
2018-03-28T09:22:57.447Z,10.83
2018-03-28T09:25:27.557Z,10.94
2018-03-28T09:27:58.440Z,10.98
2018-03-28T09:30:28.406Z,11.06
2018-03-28T09:32:58.661Z,11.15
2018-03-28T09:35:28.794Z,10.97
2018-03-28T09:37:58.905Z,10.96
2018-03-28T09:40:29.182Z,10.70
2018-03-28T09:42:59.043Z,10.75
2018-03-28T09:45:28.861Z,11.01
2018-03-28T09:47:59.312Z,10.71
2018-03-28T09:50:29.417Z,10.62
2018-03-28T09:52:59.533Z,10.79
2018-03-28T09:55:29.331Z,10.97
2018-03-28T09:57:59.974Z,11.08
2018-03-28T10:00:29.848Z,11.17
2018-03-28T10:03:06.051Z,11.31
2018-03-28T10:05:39.246Z,11.43
2018-03-28T10:08:09.149Z,11.46
2018-03-28T10:10:40.088Z,11.33
2018-03-28T10:13:10.207Z,11.44
2018-03-28T10:15:40.018Z,11.35
2018-03-28T10:18:10.046Z,11.33
2018-03-28T10:20:40.884Z,11.08
2018-03-28T10:23:10.789Z,11.34
2018-03-28T10:25:41.224Z,11.38
2018-03-28T10:28:11.727Z,11.37
2018-03-28T10:30:43.548Z,11.60
2018-03-28T10:33:14.306Z,11.69
2018-03-28T10:35:45.084Z,11.66
2018-03-28T10:38:14.985Z,11.57
2018-03-28T10:40:45.410Z,11.78
2018-03-28T10:43:15.974Z,11.79
2018-03-28T10:45:46.403Z,11.91
2018-03-28T10:48:17.102Z,11.85
2018-03-28T10:50:47.752Z,11.44
2018-03-28T10:53:18.242Z,11.37
2018-03-28T10:55:49.821Z,11.57
2018-03-28T10:58:20.736Z,11.76
2018-03-28T11:00:52.048Z,11.68
2018-03-28T11:03:22.727Z,11.55
2018-03-28T11:05:53.529Z,11.63
2018-03-28T11:08:24.014Z,11.67
2018-03-28T11:10:54.904Z,11.59
2018-03-28T11:13:25.498Z,11.51
2018-03-28T11:15:56.439Z,11.38
2018-03-28T11:18:27.241Z,11.20
2018-03-28T11:20:58.895Z,11.33
2018-03-28T11:23:29.847Z,11.40
2018-03-28T11:26:00.856Z,11.25
2018-03-28T11:28:32.157Z,11.35
2018-03-28T11:31:02.901Z,11.30
2018-03-28T11:33:33.740Z,11.12
2018-03-28T11:36:04.852Z,11.09
2018-03-28T11:38:34.856Z,11.11
2018-03-28T11:41:05.922Z,11.07
2018-03-28T11:43:37.158Z,11.08
2018-03-28T11:46:08.631Z,11.16
2018-03-28T11:48:39.244Z,11.06
2018-03-28T11:51:09.971Z,11.24
2018-03-28T11:53:40.690Z,11.41
2018-03-28T11:56:11.635Z,11.51
2018-03-28T11:58:42.591Z,11.79
2018-03-28T12:01:13.798Z,11.95
2018-03-28T12:03:44.680Z,11.99
2018-03-28T12:06:15.086Z,12.18
2018-03-28T12:08:45.914Z,12.35
2018-03-28T12:11:16.755Z,12.32
2018-03-28T12:13:47.382Z,12.64
2018-03-28T12:16:17.829Z,12.76
2018-03-28T12:18:48.840Z,13.11
2018-03-28T12:21:19.787Z,13.11
2018-03-28T12:23:50.930Z,13.11
2018-03-28T12:26:21.704Z,13.06
2018-03-28T12:28:51.775Z,13.26
2018-03-28T12:31:22.428Z,13.38
2018-03-28T12:33:52.860Z,13.50
2018-03-28T12:36:23.523Z,13.58
2018-03-28T12:38:54.317Z,13.71
2018-03-28T12:41:25.200Z,13.96
2018-03-28T12:43:55.090Z,13.93
2018-03-28T12:46:26.075Z,13.35
2018-03-28T12:48:56.882Z,13.62
2018-03-28T12:51:27.491Z,14.01
2018-03-28T12:53:57.831Z,14.08
2018-03-28T12:56:28.497Z,14.21
2018-03-28T12:58:59.012Z,14.51
2018-03-28T13:01:29.458Z,14.76
2018-03-28T13:04:00.561Z,15.05
2018-03-28T13:06:31.496Z,15.23
2018-03-28T13:09:01.763Z,15.18
2018-03-28T13:11:31.614Z,15.04
2018-03-28T13:14:01.639Z,14.92
2018-03-28T13:16:32.252Z,14.96
2018-03-28T13:19:02.967Z,14.63
2018-03-28T13:21:33.818Z,14.80
2018-03-28T13:24:04.354Z,15.17
2018-03-28T13:26:34.992Z,15.20
2018-03-28T13:29:05.687Z,14.85
2018-03-28T13:31:37.160Z,14.55
2018-03-28T13:34:07.800Z,14.55
2018-03-28T13:36:39.744Z,14.57
2018-03-28T13:39:10.218Z,14.34
2018-03-28T13:41:40.483Z,13.90
2018-03-28T13:44:10.909Z,13.85
2018-03-28T13:46:42.134Z,14.04
2018-03-28T13:49:12.129Z,14.26
2018-03-28T13:51:43.236Z,14.33
2018-03-28T13:54:13.063Z,14.56
2018-03-28T13:56:43.724Z,14.63
2018-03-28T13:59:14.127Z,14.32
2018-03-28T14:01:44.552Z,14.59
2018-03-28T14:04:14.855Z,14.42
2018-03-28T14:06:45.599Z,14.77
2018-03-28T14:09:16.750Z,14.62
2018-03-28T14:11:47.540Z,14.92
2018-03-28T14:14:17.479Z,15.01
2018-03-28T14:16:47.326Z,14.87
2018-03-28T14:19:18.071Z,14.32
2018-03-28T14:21:48.602Z,14.38
2018-03-28T14:24:18.472Z,14.84
2018-03-28T14:26:49.140Z,15.18
2018-03-28T14:29:19.861Z,14.99
2018-03-28T14:31:49.997Z,14.88
2018-03-28T14:34:21.089Z,15.11
2018-03-28T14:36:51.826Z,15.48
2018-03-28T14:39:22.039Z,15.20
2018-03-28T14:41:53.361Z,15.36
2018-03-28T14:44:24.826Z,15.32
2018-03-28T14:46:55.629Z,14.83
2018-03-28T14:49:26.622Z,14.99
2018-03-28T14:51:57.706Z,15.32
2018-03-28T14:54:29.719Z,15.27
2018-03-28T14:57:01.007Z,14.87
2018-03-28T14:59:31.369Z,14.65
2018-03-28T15:02:03.128Z,14.43
2018-03-28T15:04:34.797Z,14.19
2018-03-28T15:07:05.787Z,14.84
2018-03-28T15:09:37.144Z,14.82
2018-03-28T15:12:08.338Z,14.75
2018-03-28T15:14:39.222Z,14.75
2018-03-28T15:17:10.186Z,14.70
2018-03-28T15:19:40.714Z,14.66
2018-03-28T15:22:11.481Z,14.71
2018-03-28T15:24:42.161Z,14.39
2018-03-28T15:27:12.564Z,14.11
2018-03-28T15:29:42.405Z,13.96
2018-03-28T15:32:13.004Z,13.68
2018-03-28T15:34:43.230Z,13.40
2018-03-28T15:37:14.228Z,13.25
2018-03-28T15:39:44.894Z,13.05
2018-03-28T15:42:15.448Z,12.95
2018-03-28T15:44:46.365Z,12.91
2018-03-28T15:47:17.022Z,12.82
2018-03-28T15:49:48.062Z,12.58
2018-03-28T15:52:18.816Z,12.47
2018-03-28T15:54:49.524Z,12.39
2018-03-28T15:57:20.739Z,12.13
2018-03-28T15:59:51.223Z,12.16
2018-03-28T16:02:22.383Z,12.18
2018-03-28T16:04:52.688Z,11.91
2018-03-28T16:07:23.532Z,11.92
2018-03-28T16:09:54.113Z,12.33
2018-03-28T16:12:24.692Z,12.49
2018-03-28T16:14:55.723Z,12.26
2018-03-28T16:17:26.246Z,12.34
2018-03-28T16:19:57.179Z,12.29
2018-03-28T16:22:26.991Z,12.15
2018-03-28T16:24:57.640Z,11.97
2018-03-28T16:27:28.642Z,11.95
2018-03-28T16:29:58.962Z,12.00
2018-03-28T16:32:29.312Z,11.93
2018-03-28T16:34:59.751Z,11.88
2018-03-28T16:37:30.976Z,11.50
2018-03-28T16:40:02.267Z,11.27
2018-03-28T16:42:33.309Z,11.11
2018-03-28T16:45:04.141Z,11.04
2018-03-28T16:47:34.237Z,10.93
2018-03-28T16:50:04.248Z,10.88
2018-03-28T16:52:34.059Z,10.81
2018-03-28T16:55:04.197Z,10.71
2018-03-28T16:57:34.237Z,10.58
2018-03-28T17:00:04.608Z,10.48
2018-03-28T17:02:35.776Z,10.32
2018-03-28T17:05:05.884Z,10.05
2018-03-28T17:07:35.804Z,10.02
2018-03-28T17:10:06.684Z,9.96
2018-03-28T17:12:36.451Z,9.83
2018-03-28T17:15:06.495Z,9.73
2018-03-28T17:17:36.603Z,9.54
2018-03-28T17:20:06.550Z,9.49
2018-03-28T17:22:36.523Z,9.54
2018-03-28T17:25:06.376Z,9.52
2018-03-28T17:27:36.771Z,9.55
2018-03-28T17:30:06.691Z,9.43
2018-03-28T17:32:36.891Z,9.35
2018-03-28T17:35:06.830Z,9.15
2018-03-28T17:37:36.731Z,9.01
2018-03-28T17:40:06.541Z,8.98
2018-03-28T17:42:36.359Z,8.95
2018-03-28T17:45:06.521Z,8.93
2018-03-28T17:47:36.472Z,8.90
2018-03-28T17:50:06.415Z,8.88
2018-03-28T17:52:36.230Z,8.89
2018-03-28T17:55:06.132Z,8.83
2018-03-28T17:57:35.960Z,8.66
2018-03-28T18:00:05.865Z,8.49
2018-03-28T18:02:35.776Z,8.51
2018-03-28T18:05:05.693Z,8.53
2018-03-28T18:07:36.115Z,8.39
2018-03-28T18:10:06.148Z,8.27
2018-03-28T18:12:35.946Z,8.19
2018-03-28T18:15:05.869Z,8.12
2018-03-28T18:17:35.680Z,7.96
2018-03-28T18:20:05.590Z,7.90
2018-03-28T18:22:35.408Z,7.53
2018-03-28T18:25:05.117Z,7.60
2018-03-28T18:27:35.029Z,7.44
2018-03-28T18:30:04.841Z,7.49
2018-03-28T18:32:35.574Z,7.41
2018-03-28T18:35:05.491Z,7.29
2018-03-28T18:37:35.308Z,7.28
2018-03-28T18:40:05.219Z,7.26
2018-03-28T18:42:35.027Z,7.21
2018-03-28T18:45:04.808Z,7.15
2018-03-28T18:47:34.657Z,7.07
2018-03-28T18:50:04.650Z,7.09
2018-03-28T18:52:34.462Z,7.16
2018-03-28T18:55:04.313Z,6.96
2018-03-28T18:57:34.112Z,6.84
2018-03-28T19:00:04.225Z,6.76
2018-03-28T19:02:34.048Z,6.74
2018-03-28T19:05:03.961Z,6.62
2018-03-28T19:07:33.987Z,6.49
2018-03-28T19:10:03.902Z,6.16
2018-03-28T19:12:33.773Z,5.95
2018-03-28T19:15:03.625Z,6.09
2018-03-28T19:17:33.426Z,6.18
2018-03-28T19:20:03.249Z,6.06
2018-03-28T19:22:33.063Z,5.96
2018-03-28T19:25:03.686Z,6.09
2018-03-28T19:27:33.523Z,6.11
2018-03-28T19:30:03.532Z,6.21
2018-03-28T19:32:33.527Z,6.18
2018-03-28T19:35:03.451Z,6.09
2018-03-28T19:37:33.259Z,6.02
2018-03-28T19:40:03.183Z,5.82
2018-03-28T19:42:32.986Z,5.24
2018-03-28T19:45:03.008Z,5.04
2018-03-28T19:47:32.765Z,5.10
2018-03-28T19:50:02.639Z,5.02
2018-03-28T19:52:32.448Z,4.72
2018-03-28T19:55:02.464Z,4.64
2018-03-28T19:57:32.387Z,4.69
2018-03-28T20:00:02.205Z,4.76
2018-03-28T20:02:32.203Z,4.79
2018-03-28T20:05:08.675Z,4.92
2018-03-28T20:07:38.586Z,5.02
2018-03-28T20:10:08.407Z,5.09
2018-03-28T20:12:38.319Z,5.07
2018-03-28T20:15:08.147Z,5.13
2018-03-28T20:17:38.040Z,5.16
2018-03-28T20:20:07.869Z,5.15
2018-03-28T20:22:37.665Z,4.90
2018-03-28T20:25:07.656Z,4.98
2018-03-28T20:27:37.513Z,5.06
2018-03-28T20:30:08.126Z,5.03
2018-03-28T20:32:38.050Z,5.00
2018-03-28T20:35:08.058Z,4.88
2018-03-28T20:37:37.870Z,5.05
2018-03-28T20:40:07.687Z,4.94
2018-03-28T20:42:37.599Z,4.84
2018-03-28T20:45:07.516Z,4.67
2018-03-28T20:47:37.310Z,4.76
2018-03-28T20:50:07.055Z,4.72
2018-03-28T20:52:36.964Z,4.68
2018-03-28T20:55:06.795Z,4.48
2018-03-28T20:57:36.601Z,4.40
2018-03-28T21:00:06.389Z,4.45
2018-03-28T21:02:36.314Z,4.38
2018-03-28T21:05:06.224Z,4.36
2018-03-28T21:07:36.039Z,4.30
2018-03-28T21:10:05.947Z,4.27
2018-03-28T21:12:35.762Z,4.31
2018-03-28T21:15:05.573Z,4.46
2018-03-28T21:17:35.393Z,4.34
2018-03-28T21:20:05.194Z,4.31
2018-03-28T21:22:35.144Z,4.30
2018-03-28T21:25:05.027Z,3.98
2018-03-28T21:27:34.810Z,4.06
2018-03-28T21:30:04.595Z,4.18
2018-03-28T21:32:34.538Z,4.04
2018-03-28T21:35:04.353Z,3.94
2018-03-28T21:37:34.065Z,3.84
2018-03-28T21:40:04.041Z,3.85
2018-03-28T21:42:33.859Z,3.83
2018-03-28T21:45:04.558Z,3.86
2018-03-28T21:47:34.331Z,3.75
2018-03-28T21:50:04.279Z,3.70
2018-03-28T21:52:34.173Z,3.52
2018-03-28T21:55:03.996Z,3.46
2018-03-28T21:57:33.819Z,3.37
2018-03-28T22:00:03.633Z,3.29
2018-03-28T22:02:33.430Z,3.19
2018-03-28T22:05:03.170Z,3.29
2018-03-28T22:07:32.900Z,3.38
2018-03-28T22:10:02.626Z,3.40
2018-03-28T22:12:32.345Z,3.31
2018-03-28T22:15:02.112Z,3.43
2018-03-28T22:17:31.908Z,3.52
2018-03-28T22:20:01.646Z,3.50
2018-03-28T22:22:31.422Z,3.30
2018-03-28T22:25:01.121Z,3.24
2018-03-28T22:27:30.959Z,3.37
2018-03-28T22:30:00.682Z,3.44
2018-03-28T22:32:30.483Z,3.49
2018-03-28T22:35:00.279Z,3.53
2018-03-28T22:37:30.014Z,3.47
2018-03-28T22:39:59.753Z,3.27
2018-03-28T22:42:29.544Z,3.12
2018-03-28T22:44:59.360Z,3.25
2018-03-28T22:47:29.065Z,3.16
2018-03-28T22:49:58.760Z,3.23
2018-03-28T22:52:28.633Z,3.29
2018-03-28T22:54:58.341Z,3.36
2018-03-28T22:57:28.103Z,3.09
2018-03-28T22:59:57.822Z,3.16
2018-03-28T23:02:27.587Z,2.82
2018-03-28T23:04:57.382Z,2.59
2018-03-28T23:07:27.097Z,2.62
2018-03-28T23:09:56.790Z,2.51
2018-03-28T23:12:26.631Z,2.42
2018-03-28T23:14:56.384Z,2.22
2018-03-28T23:17:26.191Z,2.20
2018-03-28T23:19:55.998Z,2.18
2018-03-28T23:22:39.058Z,2.07
2018-03-28T23:25:08.849Z,2.04
2018-03-28T23:27:38.590Z,2.18
2018-03-28T23:30:08.306Z,2.29
2018-03-28T23:32:38.121Z,2.20
2018-03-28T23:35:07.960Z,2.14
2018-03-28T23:37:37.648Z,2.14
2018-03-28T23:40:07.504Z,2.15
2018-03-28T23:42:37.233Z,2.15
2018-03-28T23:45:07.039Z,2.24
2018-03-28T23:47:38.302Z,2.48
2018-03-28T23:50:08.017Z,2.52
2018-03-28T23:52:37.767Z,2.42
2018-03-28T23:55:07.465Z,2.37
2018-03-28T23:57:37.184Z,2.47
